Anchor Bay, California
Current Conditions -  °F | °C
As of 8:56 AM on Saturday 25 Oct 2014 (Local Time) from KUKI Reporting Station
Light Rain Light Rain  
Wind Chill: 58°   Ceiling: 3800
Heat Index: 58°   Visibility: 10mi
Dew Point: 55°   Wind: 9mph
Humidity: 90%   Direction: 140°SE
Pressure: 29.92"   Gusts: NA
Location:  38.8361°N, 123.43°W
Report Text: KUKI 251556Z AUTO 14008KT 10SM -RA FEW030 BKN038 OVC048 14/13 A2992 RMK AO2 RAE19B50 SLP127 P0000 T01440128
Loading
Personal Weather Stations






























Interactive Weather Map
Tropical Storm Tracking
New forecast layout! Learn more

10-Day Weather Forecast

Advertisements
Track Severe Weather on mobile